Westport, NY (12993)

6:22 AM EDT on September 16, 2014 (GMT -0400)
Potash Bay | Change Station
CLOSE
Current Station
Personal Weather Station
Location: Addison, VT
Elevation: 92 ft
Nearby Weather Stations

Elev 92 ft 44.09 °N, 73.39 °W | Updated 7 seconds ago

Rain
Rain
52.6 °F
Feels Like 52.6 °F
N
1.1
Wind Variable Wind from SSE
Gusts 2.2 mph

Today
High -- | Low -- °F
--% Chance of Precip.
Yesterday
High -- | Low -- °F
Precip. -- in
6:33 AM 7:02 PM
Waning Gibbous, 47% visible
Pressure 30.02 in
Visibility 10.0 miles
Clouds Overcast 3700 ft
Dew Point 47 °F
Humidity 80%
Rainfall 0.13 in
Snow Depth Not available.
UV 0 out of 12
Pollen 2.00 out of 12
Air Quality Not available.
Flu Activity Not available.
METAR K6B0 160955Z AUTO 00000KT 10SM -RA OVC037 11/11 A3002 RMK AO2 T01050105

More Conditions Fewer Conditions

Pressure 30.02 in
Visibility 10.0 miles
Clouds Overcast 3700 ft
Dew Point 47 °F
Humidity 80%
Rainfall 0.13 in
Snow Depth Not available.
UV 0 out of 12
Pollen 2.00 out of 12
Air Quality Not available.
Flu Activity Not available.
METAR K6B0 160955Z AUTO 00000KT 10SM -RA OVC037 11/11 A3002 RMK AO2 T01050105

More Conditions Fewer Conditions

10-Day Weather Forecast

Almanac

Astronomy

Sep. 16, 2014 Rise Set
Actual Time 6:33 AM EDT 7:02 PM EDT
Civil Twilight 6:04 AM EDT 7:31 PM EDT
Nautical Twilight 5:30 AM EDT 8:05 PM EDT
Astronomical Twilight 4:55 AM EDT 8:40 PM EDT
Moon No Moon Rise 2:33 PM EDT
Length of Visible Light 13h 26m
Length of Day
12h 28m
Tomorrow will be 3m 2s shorter.
Waning Gibbous, 47% of the Moon is Illuminated
Today
Waning Gibbous
Sep 24
New
Oct 1
First Quarter
Oct 8
Full
Oct 15
Last Quarter

Today's Extremes

State Highs State Lows

Community

WunderPhotos

Upload Photos

1,753,718 photos uploaded!

WunderBlogs® & News

Nearby

Air Quality

  Air Quality AQ Index Pollutant
Tuesday Good
OZONE
Tuesday Good
PM2.5

Snow Depth

Station Depth Elevation
No new snow has been reported.

Earthquake Activity

City Distance Mag. Time & Date
No recent earthquake activity has been reported nearby.
Minimum magnitude displayed is 2.5.

Coastal Water Temperatures

Place Temperature
No Stations Reporting

Nearby Weather Stations